Time;durP1;ratioP1;P1;durP2;ratioP2;P2;SDS_P1;SDS_P2;PMS_P1;PMS_P2;Temp;Humidity;BMP_temperature;BMP_pressure;BME280_temperature;BME280_humidity;BME280_pressure;Samples;Min_cycle;Max_cycle;Signal;HPM_P1;HPM_P2
2021/12/01 00:01:39;;;;;;;2.07;1.70;;;5.00;99.90;;;;;;5039524;28;20481;-45
2021/12/01 00:04:06;;;;;;;4.20;3.80;;;5.10;99.90;;;;;;5031850;28;20500;-45
2021/12/01 00:06:33;;;;;;;1.80;1.60;;;4.90;99.90;;;;;;5042934;28;20571;-45
2021/12/01 00:09:01;;;;;;;2.70;1.77;;;5.00;99.90;;;;;;5058014;28;20524;-45
2021/12/01 00:11:28;;;;;;;2.90;2.20;;;5.10;99.90;;;;;;5060718;28;20483;-45
2021/12/01 00:13:55;;;;;;;2.90;2.03;;;5.00;99.90;;;;;;5053851;28;20488;-45
2021/12/01 00:16:21;;;;;;;2.47;2.27;;;5.00;99.90;;;;;;5056598;28;20489;-45
2021/12/01 00:18:48;;;;;;;2.40;2.20;;;5.00;99.90;;;;;;5059259;28;20484;-46
2021/12/01 00:21:15;;;;;;;3.33;2.17;;;5.00;99.90;;;;;;5067560;28;20486;-46
2021/12/01 00:23:42;;;;;;;4.63;4.20;;;5.10;99.90;;;;;;5058977;28;20484;-46
2021/12/01 00:26:10;;;;;;;6.03;5.50;;;5.00;99.90;;;;;;5049617;28;20488;-45
2021/12/01 00:28:37;;;;;;;3.30;3.00;;;4.90;99.90;;;;;;5054945;28;20485;-46
2021/12/01 00:31:04;;;;;;;4.30;2.60;;;5.00;99.90;;;;;;5054619;28;20499;-45
2021/12/01 00:33:32;;;;;;;3.13;2.87;;;5.10;99.90;;;;;;5057507;28;20507;-46
2021/12/01 00:35:59;;;;;;;4.63;4.27;;;5.10;99.90;;;;;;5056478;28;20501;-45
2021/12/01 00:38:28;;;;;;;2.90;2.70;;;5.00;99.90;;;;;;5055589;28;20487;-46
2021/12/01 00:40:55;;;;;;;2.27;1.83;;;5.00;99.90;;;;;;5060552;28;20978;-46
2021/12/01 00:43:25;;;;;;;4.63;4.17;;;5.10;99.90;;;;;;5061895;28;20477;-45
2021/12/01 00:45:56;;;;;;;3.20;2.13;;;5.10;99.90;;;;;;5034152;28;20939;-46
2021/12/01 00:48:23;;;;;;;2.20;1.90;;;5.20;99.90;;;;;;5056727;28;20489;-45
2021/12/01 00:50:50;;;;;;;6.27;4.30;;;5.10;99.90;;;;;;5050812;28;20512;-45
2021/12/01 00:53:17;;;;;;;2.93;2.73;;;5.00;99.90;;;;;;5035480;28;20967;-45
2021/12/01 00:55:44;;;;;;;3.20;2.90;;;5.10;99.90;;;;;;5039067;28;20492;-45
2021/12/01 00:58:12;;;;;;;4.63;4.27;;;5.20;99.90;;;;;;5051779;28;20484;-46
2021/12/01 01:00:42;;;;;;;7.20;6.50;;;5.20;99.90;;;;;;5062952;28;20481;-47
2021/12/01 01:03:09;;;;;;;5.63;5.13;;;5.00;99.90;;;;;;5050313;28;20510;-46
2021/12/01 01:05:37;;;;;;;4.83;3.67;;;5.00;99.90;;;;;;5065901;28;20552;-46
2021/12/01 01:08:04;;;;;;;6.77;6.17;;;5.00;99.90;;;;;;5067221;28;20481;-45
2021/12/01 01:10:46;;;;;;;4.97;4.47;;;4.90;99.90;;;;;;5047760;28;20961;-46
2021/12/01 01:18:49;;;;;;;4.30;1.70;;;5.10;99.90;;;;;;5065922;28;20838;-46
2021/12/01 01:21:16;;;;;;;5.80;3.30;;;5.20;99.90;;;;;;5047813;28;20486;-47
2021/12/01 01:23:43;;;;;;;5.43;4.03;;;5.10;99.90;;;;;;5068164;28;20477;-45
2021/12/01 01:26:13;;;;;;;3.60;2.97;;;5.20;99.90;;;;;;5055447;28;20485;-45
2021/12/01 01:28:41;;;;;;;5.00;3.77;;;5.20;99.90;;;;;;5058313;28;20485;-45
2021/12/01 01:31:09;;;;;;;6.50;5.83;;;5.20;99.90;;;;;;5063420;28;20977;-45
2021/12/01 01:33:36;;;;;;;2.60;2.40;;;5.10;99.90;;;;;;5055465;28;20500;-46
2021/12/01 01:36:04;;;;;;;7.07;4.80;;;5.20;99.90;;;;;;5051867;28;20931;-46
2021/12/01 01:38:32;;;;;;;6.87;5.47;;;5.20;99.90;;;;;;5066501;28;20486;-45
2021/12/01 01:40:59;;;;;;;5.50;3.90;;;5.20;99.90;;;;;;5049109;28;20492;-46
2021/12/01 01:43:26;;;;;;;5.70;5.20;;;5.20;99.90;;;;;;5071633;28;20563;-46
2021/12/01 01:45:54;;;;;;;7.40;6.63;;;5.30;99.90;;;;;;5056118;28;20495;-45
2021/12/01 01:48:29;;;;;;;5.33;4.03;;;5.20;99.90;;;;;;5054339;28;20481;-45
2021/12/01 01:50:57;;;;;;;15.87;14.27;;;5.40;99.90;;;;;;5025603;28;20477;-46
2021/12/01 01:53:26;;;;;;;11.67;9.07;;;5.20;99.90;;;;;;5023761;28;20472;-46
2021/12/01 01:55:55;;;;;;;10.90;5.33;;;5.30;99.90;;;;;;5031179;28;20472;-46
2021/12/01 01:58:22;;;;;;;8.27;7.43;;;5.40;99.90;;;;;;5058840;28;20469;-46
2021/12/01 02:00:52;;;;;;;16.20;5.77;;;5.40;99.90;;;;;;5052359;28;20492;-47
2021/12/01 02:03:20;;;;;;;6.20;4.60;;;5.40;99.90;;;;;;5056950;28;21218;-46
2021/12/01 02:05:49;;;;;;;9.10;5.90;;;5.50;99.90;;;;;;5059054;28;20496;-46
2021/12/01 02:08:18;;;;;;;19.50;12.40;;;5.50;99.90;;;;;;5058655;28;20476;-47
2021/12/01 02:10:48;;;;;;;14.63;9.87;;;5.30;99.90;;;;;;5039631;28;20590;-46
2021/12/01 02:13:16;;;;;;;10.07;8.47;;;5.30;99.90;;;;;;5062035;28;20520;-47
2021/12/01 02:15:43;;;;;;;7.00;6.13;;;5.40;99.90;;;;;;4991014;28;1753662;-47
2021/12/01 02:18:10;;;;;;;15.73;7.20;;;5.30;99.90;;;;;;5060999;28;20944;-46
2021/12/01 02:20:39;;;;;;;6.77;5.93;;;5.30;99.90;;;;;;5064666;28;20474;-46
2021/12/01 02:23:05;;;;;;;6.17;5.57;;;5.30;99.90;;;;;;5059476;28;20488;-46
2021/12/01 02:25:33;;;;;;;12.00;8.60;;;5.30;99.90;;;;;;5059131;28;20515;-46
2021/12/01 02:27:59;;;;;;;11.27;8.87;;;5.20;99.90;;;;;;5054566;28;20474;-46
2021/12/01 02:30:26;;;;;;;5.90;4.67;;;5.20;99.90;;;;;;5036145;28;21016;-46
2021/12/01 02:32:53;;;;;;;5.27;3.87;;;5.30;99.90;;;;;;5037554;28;20478;-47
2021/12/01 02:35:20;;;;;;;6.67;4.60;;;5.30;99.90;;;;;;5057272;28;21050;-47
2021/12/01 02:37:48;;;;;;;5.27;3.70;;;5.40;99.90;;;;;;5052958;28;21017;-46
2021/12/01 02:40:15;;;;;;;6.77;5.10;;;5.40;99.90;;;;;;5067313;28;20992;-46
2021/12/01 02:42:42;;;;;;;7.07;4.80;;;5.40;99.90;;;;;;5052734;28;20488;-46
2021/12/01 02:45:09;;;;;;;5.97;4.57;;;5.50;99.90;;;;;;5055840;28;20492;-46
2021/12/01 02:47:36;;;;;;;6.43;4.90;;;5.50;99.90;;;;;;5058085;28;20490;-46
2021/12/01 02:50:03;;;;;;;5.93;5.37;;;5.50;99.90;;;;;;5057841;28;20485;-47
2021/12/01 02:52:35;;;;;;;8.30;5.13;;;5.50;99.90;;;;;;5049715;28;20492;-46
2021/12/01 02:55:05;;;;;;;11.80;6.03;;;5.50;99.90;;;;;;5059548;28;20477;-46
2021/12/01 02:57:42;;;;;;;12.60;7.63;;;5.50;99.90;;;;;;5061536;28;20497;-46
2021/12/01 03:00:10;;;;;;;7.07;5.40;;;5.40;99.90;;;;;;5057657;28;20958;-47
2021/12/01 03:02:38;;;;;;;7.00;5.80;;;5.40;99.90;;;;;;5058768;28;20485;-46
2021/12/01 03:05:06;;;;;;;5.53;4.83;;;5.40;99.90;;;;;;5061972;28;20484;-47
2021/12/01 03:07:33;;;;;;;12.97;4.93;;;5.40;99.90;;;;;;5055132;28;20598;-47
2021/12/01 03:10:00;;;;;;;8.43;6.10;;;5.30;99.90;;;;;;5042037;28;20475;-46
2021/12/01 03:12:29;;;;;;;7.93;7.33;;;5.40;99.90;;;;;;5057277;28;20483;-46
2021/12/01 03:14:56;;;;;;;8.13;7.33;;;5.20;99.90;;;;;;5058505;28;20797;-47
2021/12/01 03:17:26;;;;;;;6.13;5.53;;;5.30;99.90;;;;;;5063509;28;20489;-46
2021/12/01 03:19:53;;;;;;;11.07;8.17;;;5.40;99.90;;;;;;5051998;28;20489;-47
2021/12/01 03:22:20;;;;;;;4.97;4.47;;;5.40;99.90;;;;;;5058853;28;20880;-45
2021/12/01 03:24:47;;;;;;;4.27;3.93;;;5.30;99.90;;;;;;5052844;28;20491;-47
2021/12/01 03:27:14;;;;;;;6.43;5.60;;;5.40;99.90;;;;;;5051306;28;21058;-47
2021/12/01 03:29:42;;;;;;;7.50;6.90;;;5.30;99.90;;;;;;5060707;28;20497;-47
2021/12/01 03:32:10;;;;;;;8.80;7.13;;;5.40;99.90;;;;;;5063518;28;20493;-46
2021/12/01 03:34:38;;;;;;;7.70;3.70;;;5.30;99.90;;;;;;5057337;28;20594;-47
2021/12/01 03:37:05;;;;;;;10.07;7.03;;;5.40;99.90;;;;;;5057905;28;20507;-47
2021/12/01 03:39:32;;;;;;;5.03;4.03;;;5.30;99.90;;;;;;5069338;28;20486;-46
2021/12/01 03:41:59;;;;;;;6.97;6.37;;;5.30;99.90;;;;;;5056975;28;20499;-47
2021/12/01 03:44:27;;;;;;;6.50;3.17;;;5.40;99.90;;;;;;5069018;28;20477;-47
2021/12/01 03:46:55;;;;;;;4.00;3.57;;;5.40;99.90;;;;;;5061619;28;20481;-48
2021/12/01 03:49:22;;;;;;;6.87;3.80;;;5.40;99.90;;;;;;5057436;28;20476;-47
2021/12/01 03:51:48;;;;;;;6.97;5.77;;;5.50;99.90;;;;;;5054212;28;20483;-47
2021/12/01 03:54:15;;;;;;;15.60;6.43;;;5.40;99.90;;;;;;5071699;28;20485;-47
2021/12/01 03:56:42;;;;;;;6.13;4.90;;;5.40;99.90;;;;;;5057911;28;20482;-47
2021/12/01 03:59:09;;;;;;;5.43;3.87;;;5.60;99.90;;;;;;5066124;28;20492;-47
2021/12/01 04:01:36;;;;;;;6.73;6.10;;;5.50;99.90;;;;;;5061555;28;20514;-46
2021/12/01 04:04:04;;;;;;;7.37;3.87;;;5.50;99.90;;;;;;5060210;28;20969;-46
2021/12/01 04:06:32;;;;;;;10.00;5.80;;;5.60;99.90;;;;;;5055168;28;20485;-46
2021/12/01 04:08:59;;;;;;;4.30;3.90;;;5.50;99.90;;;;;;5062669;28;20481;-46
2021/12/01 04:11:26;;;;;;;4.43;3.50;;;5.60;99.90;;;;;;5053809;28;20989;-46
2021/12/01 04:13:56;;;;;;;3.37;2.80;;;5.60;99.90;;;;;;5039500;28;20481;-46
2021/12/01 04:16:22;;;;;;;4.03;3.73;;;5.70;99.90;;;;;;5060083;28;20917;-46
2021/12/01 04:18:49;;;;;;;4.50;4.10;;;5.60;99.90;;;;;;5055925;28;20488;-46
2021/12/01 04:21:20;;;;;;;4.73;4.30;;;5.60;99.90;;;;;;5059768;28;20490;-46
2021/12/01 04:23:47;;;;;;;4.80;3.00;;;5.60;99.90;;;;;;5061289;28;20519;-46
2021/12/01 04:26:18;;;;;;;11.60;4.83;;;5.60;99.90;;;;;;5046251;28;20482;-46
2021/12/01 04:28:45;;;;;;;4.00;2.70;;;5.60;99.90;;;;;;5059078;28;20594;-46
2021/12/01 04:31:12;;;;;;;7.73;4.30;;;5.70;99.90;;;;;;5052764;28;20489;-46
2021/12/01 04:33:39;;;;;;;2.90;2.50;;;5.70;99.90;;;;;;5071120;28;21046;-46
2021/12/01 04:36:06;;;;;;;2.77;2.57;;;5.70;99.90;;;;;;5054676;28;20484;-47
2021/12/01 04:38:34;;;;;;;4.37;3.03;;;5.80;99.90;;;;;;5063170;28;20504;-46
2021/12/01 04:41:01;;;;;;;5.10;4.30;;;5.80;99.90;;;;;;5051045;28;20481;-47
2021/12/01 04:43:28;;;;;;;5.07;2.90;;;5.90;99.90;;;;;;5055286;28;21196;-46
2021/12/01 04:45:59;;;;;;;4.27;3.87;;;5.90;99.90;;;;;;5041710;28;20486;-48
2021/12/01 04:48:26;;;;;;;5.90;5.20;;;5.90;99.90;;;;;;5043453;28;20489;-46
2021/12/01 04:50:54;;;;;;;3.40;3.20;;;5.70;99.90;;;;;;5035176;28;20483;-45
2021/12/01 04:53:21;;;;;;;3.50;3.20;;;5.90;99.90;;;;;;5039627;28;20619;-46
2021/12/01 04:55:49;;;;;;;4.47;3.67;;;5.80;99.90;;;;;;5036870;28;20493;-46
2021/12/01 04:58:15;;;;;;;2.93;2.17;;;5.90;99.90;;;;;;5042967;28;20496;-46
2021/12/01 05:00:42;;;;;;;2.87;2.30;;;5.90;99.90;;;;;;5046794;28;20485;-48
2021/12/01 05:03:09;;;;;;;4.20;3.90;;;6.00;99.90;;;;;;5058000;28;20492;-47
2021/12/01 05:05:36;;;;;;;6.80;3.93;;;5.90;99.90;;;;;;5056136;28;20491;-46
2021/12/01 05:08:04;;;;;;;3.83;3.53;;;5.90;99.90;;;;;;5055490;28;20512;-46
2021/12/01 05:10:30;;;;;;;10.23;4.43;;;5.90;99.90;;;;;;5056693;28;20493;-46
2021/12/01 05:12:58;;;;;;;3.13;2.53;;;6.00;99.90;;;;;;5056157;28;20481;-46
2021/12/01 05:15:26;;;;;;;3.80;3.50;;;6.00;99.90;;;;;;5055621;28;21053;-47
2021/12/01 05:17:52;;;;;;;4.07;2.90;;;6.10;99.90;;;;;;5056424;28;20473;-46
2021/12/01 05:20:19;;;;;;;4.60;3.00;;;6.00;99.90;;;;;;5065261;28;20488;-46
2021/12/01 05:22:46;;;;;;;3.93;3.60;;;6.00;99.90;;;;;;5055157;28;20490;-46
2021/12/01 05:25:13;;;;;;;4.40;4.03;;;6.00;99.90;;;;;;5063585;28;20490;-46
2021/12/01 05:27:40;;;;;;;6.13;2.97;;;6.10;99.90;;;;;;5063108;28;20489;-46
2021/12/01 05:30:08;;;;;;;4.73;4.20;;;6.00;99.90;;;;;;5056107;28;20490;-46
2021/12/01 05:32:36;;;;;;;8.40;3.70;;;5.90;99.90;;;;;;5060051;28;20485;-46
2021/12/01 05:35:03;;;;;;;3.87;3.60;;;6.00;99.90;;;;;;5063087;28;20547;-46
2021/12/01 05:37:30;;;;;;;3.03;2.80;;;5.90;99.90;;;;;;5055067;28;20499;-47
2021/12/01 05:39:57;;;;;;;2.70;2.50;;;6.00;99.90;;;;;;5072658;28;20490;-46
2021/12/01 05:42:23;;;;;;;6.17;3.80;;;6.00;99.90;;;;;;5050113;28;21134;-45
2021/12/01 05:44:50;;;;;;;3.27;3.00;;;5.90;99.90;;;;;;5061006;28;20478;-46
2021/12/01 05:47:18;;;;;;;2.90;2.70;;;5.90;99.90;;;;;;5061674;28;20487;-46
2021/12/01 05:49:45;;;;;;;3.70;3.27;;;5.90;99.90;;;;;;5058552;28;21034;-47
2021/12/01 05:52:14;;;;;;;4.03;3.20;;;5.90;99.90;;;;;;5057211;28;20480;-46
2021/12/01 05:54:41;;;;;;;5.00;4.60;;;5.90;99.90;;;;;;5060140;28;20478;-46
2021/12/01 05:57:08;;;;;;;5.10;4.60;;;6.00;99.90;;;;;;5060727;28;20986;-46
2021/12/01 05:59:35;;;;;;;4.10;3.70;;;6.00;99.90;;;;;;5058880;28;21006;-46
2021/12/01 06:02:01;;;;;;;4.20;3.90;;;5.90;99.90;;;;;;5052836;28;20508;-46
2021/12/01 06:04:30;;;;;;;4.90;4.10;;;6.00;99.90;;;;;;5049483;28;20478;-46
2021/12/01 06:06:56;;;;;;;2.83;2.63;;;6.00;99.90;;;;;;5059058;28;20504;-46
2021/12/01 06:09:23;;;;;;;5.13;3.23;;;6.00;99.90;;;;;;5051404;28;20481;-46
2021/12/01 06:11:52;;;;;;;4.13;3.73;;;6.10;99.90;;;;;;5056998;28;20477;-47
2021/12/01 06:14:19;;;;;;;7.07;5.17;;;6.00;99.90;;;;;;5053218;28;20494;-46
2021/12/01 06:16:46;;;;;;;3.97;1.80;;;6.00;99.90;;;;;;5041979;28;20473;-46
2021/12/01 06:19:13;;;;;;;5.63;4.97;;;6.10;99.90;;;;;;5052663;28;20471;-46
2021/12/01 06:21:42;;;;;;;3.17;2.60;;;6.10;99.90;;;;;;5049158;28;20501;-47
2021/12/01 06:24:09;;;;;;;3.10;2.67;;;6.10;99.90;;;;;;5070061;28;20484;-47
2021/12/01 06:26:36;;;;;;;3.33;3.03;;;6.20;99.90;;;;;;5058526;28;20489;-46
2021/12/01 06:29:02;;;;;;;2.97;2.50;;;6.10;99.90;;;;;;5046272;28;20490;-47
2021/12/01 06:31:29;;;;;;;3.30;3.00;;;6.20;99.90;;;;;;5038912;28;20491;-47
2021/12/01 06:33:58;;;;;;;5.93;2.50;;;6.10;99.90;;;;;;5055422;28;20482;-46
2021/12/01 06:36:25;;;;;;;5.17;1.93;;;6.20;99.90;;;;;;5061258;28;20545;-46
2021/12/01 06:38:53;;;;;;;5.13;4.73;;;6.10;99.90;;;;;;5060255;28;20476;-46
2021/12/01 06:41:20;;;;;;;5.27;3.40;;;5.90;99.90;;;;;;5046214;28;20489;-47
2021/12/01 06:43:46;;;;;;;3.70;2.77;;;6.10;99.90;;;;;;5053746;28;20488;-46
2021/12/01 06:46:13;;;;;;;8.73;2.97;;;6.00;99.90;;;;;;5041638;28;20504;-46
2021/12/01 06:48:40;;;;;;;2.80;2.57;;;6.10;99.90;;;;;;5040580;28;20487;-48
2021/12/01 06:51:07;;;;;;;6.10;3.63;;;6.20;99.90;;;;;;5038442;28;20481;-52
2021/12/01 06:53:33;;;;;;;3.37;3.07;;;6.20;99.90;;;;;;5042597;28;20810;-47
2021/12/01 06:56:01;;;;;;;2.60;2.07;;;6.20;99.90;;;;;;5040707;28;20497;-46
2021/12/01 06:58:28;;;;;;;4.50;2.77;;;6.30;99.90;;;;;;5040494;28;20492;-47
2021/12/01 07:00:55;;;;;;;1.77;1.40;;;6.30;99.90;;;;;;5041716;28;20484;-46
2021/12/01 07:03:22;;;;;;;2.60;2.33;;;6.40;99.90;;;;;;5037494;28;20860;-46
2021/12/01 07:05:48;;;;;;;4.00;2.63;;;6.30;99.90;;;;;;5053413;28;20479;-46
2021/12/01 07:08:15;;;;;;;2.17;1.97;;;6.40;99.90;;;;;;5057821;28;20489;-47
2021/12/01 07:10:42;;;;;;;4.63;1.93;;;6.40;99.90;;;;;;5061140;28;20492;-47
2021/12/01 07:13:10;;;;;;;3.30;1.80;;;6.40;99.90;;;;;;5059504;28;20987;-46
2021/12/01 07:15:37;;;;;;;5.80;2.87;;;6.40;99.90;;;;;;5053580;28;20503;-46
2021/12/01 07:18:04;;;;;;;2.97;2.60;;;6.30;99.90;;;;;;5053313;28;20490;-46
2021/12/01 07:20:31;;;;;;;3.63;2.40;;;6.30;99.90;;;;;;5060538;28;20501;-45
2021/12/01 07:22:58;;;;;;;1.70;1.23;;;6.40;99.90;;;;;;5060973;28;20488;-47
2021/12/01 07:25:25;;;;;;;1.70;1.23;;;6.40;99.90;;;;;;5058588;28;20485;-47
2021/12/01 07:27:51;;;;;;;4.33;2.00;;;6.50;99.90;;;;;;5057088;28;20509;-46
2021/12/01 07:30:20;;;;;;;2.03;1.80;;;6.40;99.90;;;;;;5053947;28;20493;-45
2021/12/01 07:32:47;;;;;;;2.10;1.47;;;6.50;99.90;;;;;;5060191;28;20481;-47
2021/12/01 07:35:14;;;;;;;2.17;1.80;;;6.50;99.90;;;;;;5033250;28;20478;-47
2021/12/01 07:37:40;;;;;;;1.97;1.33;;;6.50;99.90;;;;;;5044634;28;21018;-46
2021/12/01 07:40:08;;;;;;;2.00;1.80;;;6.60;99.90;;;;;;5030595;28;20486;-46
2021/12/01 07:42:35;;;;;;;2.10;1.20;;;6.60;99.90;;;;;;5037470;28;20487;-46
2021/12/01 07:45:03;;;;;;;2.33;2.13;;;6.50;99.90;;;;;;5024417;28;21095;-46
2021/12/01 07:47:31;;;;;;;1.70;0.83;;;6.60;99.90;;;;;;5054046;28;20482;-47
2021/12/01 07:49:58;;;;;;;3.40;1.00;;;6.70;99.90;;;;;;5040011;28;20564;-46
2021/12/01 07:52:25;;;;;;;2.30;1.07;;;6.80;99.90;;;;;;5036648;28;20482;-47
2021/12/01 07:54:52;;;;;;;4.97;1.80;;;6.80;99.90;;;;;;5041915;28;20484;-47
2021/12/01 07:57:19;;;;;;;3.00;1.43;;;6.80;99.90;;;;;;5040654;28;20488;-46
2021/12/01 07:59:45;;;;;;;2.80;1.03;;;6.80;99.90;;;;;;5036116;28;20485;-46
2021/12/01 08:02:12;;;;;;;1.63;1.00;;;6.90;99.90;;;;;;5045921;28;20495;-46
2021/12/01 08:04:40;;;;;;;2.00;1.33;;;6.90;99.90;;;;;;5045653;28;20494;-47
2021/12/01 08:07:07;;;;;;;2.30;0.87;;;7.00;99.90;;;;;;5059130;28;20491;-47
2021/12/01 08:09:34;;;;;;;1.50;0.80;;;6.90;99.90;;;;;;5047816;28;20744;-47
2021/12/01 08:12:01;;;;;;;1.90;1.30;;;7.00;99.90;;;;;;5070844;28;20466;-46
2021/12/01 08:14:28;;;;;;;1.57;1.10;;;6.90;99.90;;;;;;5053767;28;20486;-47
2021/12/01 08:16:55;;;;;;;1.50;0.90;;;7.00;99.90;;;;;;5072125;28;20478;-47
2021/12/01 08:19:22;;;;;;;3.67;1.57;;;7.00;99.90;;;;;;5062136;28;20478;-47
2021/12/01 08:21:50;;;;;;;1.50;1.10;;;6.90;99.90;;;;;;5060661;28;20489;-46
2021/12/01 08:24:19;;;;;;;2.37;1.00;;;6.90;99.90;;;;;;5053156;28;20469;-54
2021/12/01 08:26:47;;;;;;;1.80;1.20;;;6.90;99.90;;;;;;5055648;28;20820;-46
2021/12/01 08:29:14;;;;;;;1.90;1.50;;;6.90;99.90;;;;;;5042148;28;20486;-45
2021/12/01 08:31:41;;;;;;;2.10;1.10;;;6.90;99.90;;;;;;5031044;28;20979;-46
2021/12/01 08:34:08;;;;;;;2.20;1.30;;;7.00;99.90;;;;;;5046771;28;21093;-46
2021/12/01 08:36:35;;;;;;;1.57;1.10;;;7.10;99.90;;;;;;5043325;28;20484;-45
2021/12/01 08:39:05;;;;;;;1.70;1.40;;;7.00;99.90;;;;;;5058035;28;20848;-45
2021/12/01 08:41:32;;;;;;;2.10;1.20;;;7.00;99.90;;;;;;5058490;28;20488;-46
2021/12/01 08:43:59;;;;;;;1.50;0.90;;;7.10;99.90;;;;;;5062522;28;20493;-47
2021/12/01 08:46:25;;;;;;;1.50;0.90;;;7.20;99.90;;;;;;5049760;28;20648;-45
2021/12/01 08:48:52;;;;;;;1.80;1.00;;;7.10;99.90;;;;;;5060795;28;20497;-45
2021/12/01 08:51:19;;;;;;;1.60;1.10;;;7.10;99.90;;;;;;5058050;28;20481;-45
2021/12/01 08:53:46;;;;;;;1.87;0.90;;;7.00;99.90;;;;;;5052868;28;20977;-46
2021/12/01 08:56:14;;;;;;;3.93;1.37;;;7.20;99.90;;;;;;5059985;28;20891;-45
2021/12/01 08:58:41;;;;;;;2.80;1.00;;;7.10;99.90;;;;;;5049156;28;20488;-47
2021/12/01 09:01:08;;;;;;;2.57;0.83;;;7.20;99.90;;;;;;5064263;28;20486;-46
2021/12/01 09:03:36;;;;;;;1.43;0.70;;;7.30;99.90;;;;;;5061149;28;20478;-46
2021/12/01 09:06:03;;;;;;;1.60;0.70;;;7.20;99.90;;;;;;5048723;28;20480;-46
2021/12/01 09:08:30;;;;;;;1.50;0.70;;;7.30;99.90;;;;;;5055968;28;20493;-46
2021/12/01 09:10:59;;;;;;;1.30;0.60;;;7.30;99.90;;;;;;5067364;28;20885;-46
2021/12/01 09:13:30;;;;;;;2.90;0.80;;;7.30;99.90;;;;;;5059542;28;21172;-45
2021/12/01 09:15:57;;;;;;;1.60;1.00;;;7.30;99.90;;;;;;5045632;28;20494;-45
2021/12/01 09:18:27;;;;;;;4.90;1.03;;;7.30;99.90;;;;;;5055593;28;20484;-45
2021/12/01 09:20:54;;;;;;;1.90;1.00;;;7.30;99.90;;;;;;5052570;28;20494;-46
2021/12/01 09:23:21;;;;;;;3.80;1.23;;;7.30;99.90;;;;;;5053645;28;20895;-45
2021/12/01 09:25:48;;;;;;;1.80;1.03;;;7.40;99.90;;;;;;5062360;28;20941;-45
2021/12/01 09:28:17;;;;;;;1.40;0.70;;;7.30;99.90;;;;;;5055813;28;22521;-45
2021/12/01 09:30:46;;;;;;;1.63;0.60;;;7.40;99.90;;;;;;5054246;28;20486;-46
2021/12/01 09:33:14;;;;;;;1.40;0.70;;;7.40;99.90;;;;;;5043670;28;20482;-45
2021/12/01 09:35:40;;;;;;;1.50;0.60;;;7.40;99.90;;;;;;5053051;28;20486;-46
2021/12/01 09:38:08;;;;;;;2.33;0.90;;;7.50;99.90;;;;;;5043002;28;20485;-46
2021/12/01 09:40:35;;;;;;;1.43;0.67;;;7.50;99.90;;;;;;5057146;28;20996;-47
2021/12/01 09:43:02;;;;;;;1.50;0.67;;;7.50;99.90;;;;;;5065230;28;20485;-46
2021/12/01 09:45:29;;;;;;;1.90;0.90;;;7.50;99.90;;;;;;5051100;28;20482;-45
2021/12/01 09:47:57;;;;;;;1.40;0.70;;;7.50;99.90;;;;;;5057801;28;20486;-46
2021/12/01 09:50:24;;;;;;;1.40;0.70;;;7.50;99.90;;;;;;5049740;28;20495;-46
2021/12/01 09:52:52;;;;;;;2.53;1.07;;;7.50;99.90;;;;;;5054137;28;21184;-46
2021/12/01 09:55:19;;;;;;;1.40;0.70;;;7.50;99.90;;;;;;5054175;28;20478;-45
2021/12/01 09:58:01;;;;;;;1.50;0.93;;;7.50;99.90;;;;;;5059505;28;20492;-45
2021/12/01 10:00:29;;;;;;;1.50;0.80;;;7.60;99.90;;;;;;5053064;28;20960;-45
2021/12/01 10:02:58;;;;;;;1.50;1.10;;;7.40;99.90;;;;;;5063118;28;20945;-45
2021/12/01 10:06:02;;;;;;;2.00;0.80;;;7.50;99.90;;;;;;5058943;28;20503;-45
2021/12/01 10:08:30;;;;;;;1.50;0.70;;;7.60;99.90;;;;;;5059291;28;20852;-45
2021/12/01 10:10:58;;;;;;;2.03;1.03;;;7.60;99.90;;;;;;5058817;28;20498;-46
2021/12/01 10:13:27;;;;;;;1.40;0.70;;;7.50;99.90;;;;;;5053900;28;20489;-45
2021/12/01 10:15:55;;;;;;;1.50;0.70;;;7.60;99.90;;;;;;5066616;28;20493;-45
2021/12/01 10:18:24;;;;;;;2.10;0.83;;;7.60;99.90;;;;;;5050132;28;20474;-46
2021/12/01 10:21:06;;;;;;;1.40;0.60;;;7.60;99.90;;;;;;5062338;28;20538;-46
2021/12/01 10:23:35;;;;;;;1.40;0.93;;;7.70;99.90;;;;;;5049612;28;20880;-45
2021/12/01 10:26:10;;;;;;;1.60;0.70;;;7.70;99.90;;;;;;5031551;28;21060;-45
2021/12/01 10:28:40;;;;;;;1.60;0.90;;;7.60;99.90;;;;;;5035413;28;20480;-45
2021/12/01 10:31:07;;;;;;;1.40;0.77;;;7.60;99.90;;;;;;5039339;28;20493;-44
2021/12/01 10:33:35;;;;;;;1.40;0.60;;;7.70;99.90;;;;;;5059283;28;20483;-45
2021/12/01 10:36:04;;;;;;;1.67;0.90;;;7.70;99.90;;;;;;5053791;28;21007;-45
2021/12/01 10:38:35;;;;;;;1.60;0.80;;;7.70;99.90;;;;;;5036142;28;20480;-45
2021/12/01 10:41:04;;;;;;;3.73;0.93;;;7.60;99.90;;;;;;5064381;28;20892;-45
2021/12/01 10:43:43;;;;;;;1.73;0.93;;;7.60;99.90;;;;;;5052618;28;20487;-46
2021/12/01 10:46:13;;;;;;;1.60;0.90;;;7.50;99.90;;;;;;5064653;28;20923;-45
2021/12/01 10:48:42;;;;;;;1.40;0.70;;;7.60;99.90;;;;;;5053203;28;20496;-44
2021/12/01 10:51:31;;;;;;;2.47;0.93;;;7.70;99.90;;;;;;5064214;28;20585;-45
2021/12/01 10:53:59;;;;;;;1.60;0.90;;;7.60;99.90;;;;;;5059858;28;20471;-45
2021/12/01 10:56:26;;;;;;;3.83;0.70;;;7.70;99.90;;;;;;5063501;28;20483;-45
2021/12/01 10:58:52;;;;;;;4.70;1.00;;;7.80;99.90;;;;;;5053465;28;21077;-46
2021/12/01 11:01:21;;;;;;;1.40;0.83;;;7.70;99.90;;;;;;5065191;28;20486;-45
2021/12/01 11:03:50;;;;;;;1.40;0.73;;;7.70;99.90;;;;;;5052125;28;20490;-48
2021/12/01 11:06:20;;;;;;;1.40;0.70;;;7.90;99.90;;;;;;5061342;28;20559;-45
2021/12/01 11:08:49;;;;;;;2.33;0.90;;;7.80;99.90;;;;;;5058080;28;20482;-46
2021/12/01 11:11:17;;;;;;;2.80;1.07;;;7.90;99.90;;;;;;5058912;28;20486;-46
2021/12/01 11:13:46;;;;;;;1.80;0.80;;;7.80;99.90;;;;;;5051428;28;20477;-46
2021/12/01 11:16:14;;;;;;;1.60;0.90;;;7.80;99.90;;;;;;5072438;28;20567;-47
2021/12/01 11:18:44;;;;;;;1.50;0.70;;;7.70;99.90;;;;;;5057961;28;20483;-45
2021/12/01 11:21:14;;;;;;;1.47;0.80;;;7.80;99.90;;;;;;5033959;28;20477;-46
2021/12/01 11:23:42;;;;;;;1.57;0.87;;;7.80;99.90;;;;;;5060444;28;20489;-46
2021/12/01 11:26:12;;;;;;;1.80;0.90;;;7.90;99.90;;;;;;5066099;28;20496;-46
2021/12/01 11:28:41;;;;;;;1.50;0.80;;;7.90;99.90;;;;;;5062271;28;20494;-46
2021/12/01 11:31:09;;;;;;;1.40;0.70;;;7.90;99.90;;;;;;5061417;28;20510;-47
2021/12/01 11:33:37;;;;;;;1.97;0.83;;;7.90;99.90;;;;;;5058120;28;20499;-47
2021/12/01 11:36:07;;;;;;;2.30;0.83;;;7.90;99.90;;;;;;5055167;28;20489;-46
2021/12/01 11:38:36;;;;;;;1.50;0.90;;;7.90;99.90;;;;;;5056092;28;20482;-46
2021/12/01 11:41:05;;;;;;;1.97;0.90;;;7.90;99.90;;;;;;5059249;28;20516;-46
2021/12/01 11:43:35;;;;;;;1.50;0.87;;;7.90;99.90;;;;;;5059428;28;20959;-46
2021/12/01 11:46:02;;;;;;;2.73;0.90;;;8.00;99.90;;;;;;5056437;28;20485;-46
2021/12/01 11:48:32;;;;;;;1.50;0.73;;;8.00;99.90;;;;;;5061201;28;20716;-46
2021/12/01 11:51:08;;;;;;;1.40;0.73;;;7.90;99.90;;;;;;5057075;28;20487;-46
2021/12/01 11:53:37;;;;;;;1.67;1.10;;;7.90;99.90;;;;;;5049584;28;21020;-47
2021/12/01 11:56:06;;;;;;;1.30;0.70;;;7.90;99.90;;;;;;5066655;28;20921;-47
2021/12/01 11:58:56;;;;;;;2.83;0.77;;;8.00;99.90;;;;;;5059430;28;20478;-47
2021/12/01 12:01:48;;;;;;;8.17;1.00;;;8.00;99.90;;;;;;5058523;28;20571;-46
2021/12/01 12:04:39;;;;;;;1.50;0.80;;;8.00;99.90;;;;;;5055975;28;20487;-46
2021/12/01 12:07:09;;;;;;;2.57;1.27;;;8.00;99.90;;;;;;5058137;28;20599;-47
2021/12/01 12:09:38;;;;;;;2.50;1.10;;;7.90;99.90;;;;;;5057882;28;20484;-47
2021/12/01 12:12:11;;;;;;;1.40;0.80;;;7.90;99.90;;;;;;5051904;28;21040;-47
2021/12/01 12:14:40;;;;;;;1.93;0.87;;;7.90;99.90;;;;;;5072278;28;20481;-47
2021/12/01 12:17:12;;;;;;;1.80;1.00;;;7.80;99.90;;;;;;5057903;28;20519;-47
2021/12/01 12:19:54;;;;;;;3.17;0.70;;;7.90;99.90;;;;;;5055330;28;20479;-47
2021/12/01 12:22:27;;;;;;;1.70;0.80;;;7.90;99.90;;;;;;5062802;28;20482;-47
2021/12/01 12:24:56;;;;;;;2.10;1.03;;;7.90;99.90;;;;;;5060312;28;20485;-46
2021/12/01 12:27:38;;;;;;;1.60;0.87;;;7.90;99.90;;;;;;5055620;28;20551;-46
2021/12/01 12:30:08;;;;;;;1.50;0.93;;;7.80;99.90;;;;;;5038823;28;20492;-46
2021/12/01 12:32:35;;;;;;;1.60;0.60;;;7.70;99.90;;;;;;5039205;28;20489;-47
2021/12/01 12:35:06;;;;;;;1.50;0.80;;;7.80;99.90;;;;;;5055552;28;20484;-46
2021/12/01 12:37:35;;;;;;;1.50;0.67;;;7.90;99.90;;;;;;5056019;28;20600;-47
2021/12/01 12:40:08;;;;;;;1.50;0.70;;;7.90;99.90;;;;;;5063024;28;20491;-48
2021/12/01 12:42:35;;;;;;;1.40;0.70;;;7.90;99.90;;;;;;5058629;28;20497;-47
2021/12/01 12:45:02;;;;;;;2.37;1.00;;;8.00;99.90;;;;;;5058426;28;20510;-46
2021/12/01 12:47:45;;;;;;;2.37;0.90;;;8.00;99.90;;;;;;5036529;28;20485;-47
2021/12/01 12:50:14;;;;;;;2.03;1.30;;;7.90;99.90;;;;;;5033224;28;20497;-47
2021/12/01 12:52:43;;;;;;;1.57;0.90;;;8.00;99.90;;;;;;5041317;28;20479;-46
2021/12/01 12:55:40;;;;;;;1.80;0.70;;;8.00;99.90;;;;;;5040623;28;20476;-46
2021/12/01 12:58:09;;;;;;;1.40;0.77;;;8.00;99.90;;;;;;5026392;28;21041;-46
2021/12/01 13:00:38;;;;;;;1.40;0.70;;;7.90;99.90;;;;;;5031116;28;20577;-46
2021/12/01 13:03:28;;;;;;;3.53;1.20;;;7.90;99.90;;;;;;5038816;28;20488;-47
2021/12/01 13:05:56;;;;;;;2.83;1.03;;;8.00;99.90;;;;;;5041274;28;20491;-46
2021/12/01 13:08:30;;;;;;;1.40;0.80;;;8.00;99.90;;;;;;5062744;28;20487;-46